Decoded Metar for UKKM (GOSTOMEL in UKRAINE) (IATA:N/A) | Meteo·Mobile Aviation Weather
aviador You're here:

UKKM Decoded Metar

GOSTOMEL in UKRAINE
Report Time2018-10-20 12:00:00
UTC Time2018-10-20 12:32:27
Flight Rules mvfr MVFR
Wind340° at 8 kt
W.Decomp.*RWY 33: 8.0 kt HW 0.7 kt RCW
W.Rank340° ranks 11
Current wind is above 340° avg. (7.2)
Visibility5000 m
Phenomena:N/A
Clouds:N/A
CeilingNone
Temp10°C (ISA -4)
Dew Point10°C (100% RH)
AAT7.2°C
QNH1020 hPa
Density Alt-30 ft
Elevation515 ft
Report Wrong Elevation
Raw Report
UKKM 201200Z AUTO 34004MPS 5000 // ///004/// 10/10 Q1020=

Extra information for UKKM:More info

Metar Taf Metar & Taf Last 4 Metars F.Rules Stats Wind Profile Meteogram Temp Stats Airport Information Weather charts Add Link Nearby VenuesMetar ALERT Operation Metar Decoded Social comments